sensor_id;sensor_type;location;lat;lon;timestamp;pressure;altitude;pressure_sealevel;temperature;humidity
17785;BME280;9016;53.582;10.062;2022-11-24T00:01:12;100342.22;;;7.57;84.88
17785;BME280;9016;53.582;10.062;2022-11-24T00:03:43;100343.91;;;7.58;84.90
17785;BME280;9016;53.582;10.062;2022-11-24T00:06:14;100350.34;;;7.54;85.02
17785;BME280;9016;53.582;10.062;2022-11-24T00:08:44;100342.03;;;7.60;85.59
17785;BME280;9016;53.582;10.062;2022-11-24T00:11:14;100347.88;;;7.67;85.82
17785;BME280;9016;53.582;10.062;2022-11-24T00:13:42;100339.22;;;7.63;85.69
17785;BME280;9016;53.582;10.062;2022-11-24T00:16:12;100348.28;;;7.59;85.13
17785;BME280;9016;53.582;10.062;2022-11-24T00:18:42;100350.84;;;7.61;85.92
17785;BME280;9016;53.582;10.062;2022-11-24T00:21:12;100347.97;;;7.65;86.23
17785;BME280;9016;53.582;10.062;2022-11-24T00:23:41;100357.00;;;7.61;85.75
17785;BME280;9016;53.582;10.062;2022-11-24T00:26:10;100354.28;;;7.63;85.31
17785;BME280;9016;53.582;10.062;2022-11-24T00:28:39;100354.28;;;7.63;86.34
17785;BME280;9016;53.582;10.062;2022-11-24T00:31:16;100356.38;;;7.56;86.46
17785;BME280;9016;53.582;10.062;2022-11-24T00:33:47;100362.56;;;7.57;87.29
17785;BME280;9016;53.582;10.062;2022-11-24T00:36:17;100360.16;;;7.52;86.98
17785;BME280;9016;53.582;10.062;2022-11-24T00:38:45;100361.88;;;7.53;87.41
17785;BME280;9016;53.582;10.062;2022-11-24T00:41:14;100363.41;;;7.57;87.57
17785;BME280;9016;53.582;10.062;2022-11-24T00:43:41;100357.50;;;7.52;87.46
17785;BME280;9016;53.582;10.062;2022-11-24T00:46:09;100367.84;;;7.57;88.14
17785;BME280;9016;53.582;10.062;2022-11-24T00:48:37;100369.50;;;7.59;88.26
17785;BME280;9016;53.582;10.062;2022-11-24T00:51:08;100373.75;;;7.62;87.32
17785;BME280;9016;53.582;10.062;2022-11-24T00:53:39;100378.13;;;7.63;87.77
17785;BME280;9016;53.582;10.062;2022-11-24T00:56:07;100381.09;;;7.57;87.60
17785;BME280;9016;53.582;10.062;2022-11-24T00:58:36;100384.94;;;7.51;87.39
17785;BME280;9016;53.582;10.062;2022-11-24T01:01:05;100384.06;;;7.51;88.78
17785;BME280;9016;53.582;10.062;2022-11-24T01:03:34;100390.25;;;7.51;88.94
17785;BME280;9016;53.582;10.062;2022-11-24T01:06:03;100387.38;;;7.56;89.12
17785;BME280;9016;53.582;10.062;2022-11-24T01:08:31;100392.56;;;7.57;88.48
17785;BME280;9016;53.582;10.062;2022-11-24T01:11:08;100390.72;;;7.59;88.53
17785;BME280;9016;53.582;10.062;2022-11-24T01:13:37;100388.47;;;7.52;89.14
17785;BME280;9016;53.582;10.062;2022-11-24T01:16:11;100396.41;;;7.52;89.14
17785;BME280;9016;53.582;10.062;2022-11-24T01:18:40;100400.94;;;7.50;89.19
17785;BME280;9016;53.582;10.062;2022-11-24T01:21:08;100392.28;;;7.46;90.02
17785;BME280;9016;53.582;10.062;2022-11-24T01:23:36;100397.34;;;7.51;90.18
17785;BME280;9016;53.582;10.062;2022-11-24T01:26:06;100389.38;;;7.51;89.98
17785;BME280;9016;53.582;10.062;2022-11-24T01:28:35;100401.16;;;7.45;89.72
17785;BME280;9016;53.582;10.062;2022-11-24T01:31:09;100393.06;;;7.48;90.63
17785;BME280;9016;53.582;10.062;2022-11-24T01:33:37;100390.66;;;7.44;90.22
17785;BME280;9016;53.582;10.062;2022-11-24T01:36:05;100393.78;;;7.35;91.64
17785;BME280;9016;53.582;10.062;2022-11-24T01:38:33;100393.47;;;7.41;91.79
17785;BME280;9016;53.582;10.062;2022-11-24T01:41:03;100396.72;;;7.46;92.06
17785;BME280;9016;53.582;10.062;2022-11-24T01:43:33;100394.84;;;7.48;91.72
17785;BME280;9016;53.582;10.062;2022-11-24T01:46:07;100399.94;;;7.52;91.59
17785;BME280;9016;53.582;10.062;2022-11-24T01:48:40;100401.81;;;7.50;92.01
17785;BME280;9016;53.582;10.062;2022-11-24T01:51:12;100402.22;;;7.58;91.35
17785;BME280;9016;53.582;10.062;2022-11-24T01:53:45;100402.19;;;7.60;91.70
17785;BME280;9016;53.582;10.062;2022-11-24T01:56:14;100403.78;;;7.62;91.04
17785;BME280;9016;53.582;10.062;2022-11-24T01:58:45;100406.28;;;7.65;91.46
17785;BME280;9016;53.582;10.062;2022-11-24T02:01:14;100409.00;;;7.64;91.76
17785;BME280;9016;53.582;10.062;2022-11-24T02:03:44;100403.63;;;7.65;91.14
17785;BME280;9016;53.582;10.062;2022-11-24T02:06:15;100408.09;;;7.65;91.17
17785;BME280;9016;53.582;10.062;2022-11-24T02:08:49;100416.03;;;7.65;91.31
17785;BME280;9016;53.582;10.062;2022-11-24T02:11:20;100426.72;;;7.63;91.18
17785;BME280;9016;53.582;10.062;2022-11-24T02:13:52;100423.38;;;7.60;91.13
17785;BME280;9016;53.582;10.062;2022-11-24T02:16:20;100421.34;;;7.65;91.22
17785;BME280;9016;53.582;10.062;2022-11-24T02:18:49;100427.25;;;7.70;90.88
17785;BME280;9016;53.582;10.062;2022-11-24T02:21:17;100420.25;;;7.69;91.15
17785;BME280;9016;53.582;10.062;2022-11-24T02:23:51;100428.78;;;7.74;90.80
17785;BME280;9016;53.582;10.062;2022-11-24T02:26:32;100425.69;;;7.66;90.56
17785;BME280;9016;53.582;10.062;2022-11-24T02:29:02;100429.97;;;7.68;90.68
17785;BME280;9016;53.582;10.062;2022-11-24T02:31:30;100421.16;;;7.68;90.69
17785;BME280;9016;53.582;10.062;2022-11-24T02:33:58;100428.19;;;7.69;90.96
17785;BME280;9016;53.582;10.062;2022-11-24T02:36:26;100429.91;;;7.70;91.34
17785;BME280;9016;53.582;10.062;2022-11-24T02:38:54;100433.50;;;7.69;90.19
17785;BME280;9016;53.582;10.062;2022-11-24T02:41:24;100428.44;;;7.64;90.78
17785;BME280;9016;53.582;10.062;2022-11-24T02:43:57;100419.00;;;7.59;91.22
17785;BME280;9016;53.582;10.062;2022-11-24T02:46:25;100431.75;;;7.52;90.62
17785;BME280;9016;53.582;10.062;2022-11-24T02:48:53;100432.44;;;7.56;91.13
17785;BME280;9016;53.582;10.062;2022-11-24T02:51:21;100432.56;;;7.53;90.63
17785;BME280;9016;53.582;10.062;2022-11-24T02:53:49;100437.44;;;7.45;91.60
17785;BME280;9016;53.582;10.062;2022-11-24T02:56:17;100435.09;;;7.39;92.26
17785;BME280;9016;53.582;10.062;2022-11-24T02:58:45;100446.97;;;7.32;92.29
17785;BME280;9016;53.582;10.062;2022-11-24T03:01:15;100443.53;;;7.30;92.97
17785;BME280;9016;53.582;10.062;2022-11-24T03:03:43;100441.81;;;7.29;93.09
17785;BME280;9016;53.582;10.062;2022-11-24T03:06:10;100439.22;;;7.27;93.28
17785;BME280;9016;53.582;10.062;2022-11-24T03:08:39;100443.69;;;7.27;92.53
17785;BME280;9016;53.582;10.062;2022-11-24T03:11:07;100441.28;;;7.22;93.51
17785;BME280;9016;53.582;10.062;2022-11-24T03:13:35;100442.97;;;7.23;93.48
17785;BME280;9016;53.582;10.062;2022-11-24T03:16:07;100441.19;;;7.24;93.44
17785;BME280;9016;53.582;10.062;2022-11-24T03:18:37;100449.22;;;7.22;93.28
17785;BME280;9016;53.582;10.062;2022-11-24T03:21:05;100450.16;;;7.21;93.92
17785;BME280;9016;53.582;10.062;2022-11-24T03:23:34;100448.44;;;7.20;93.71
17785;BME280;9016;53.582;10.062;2022-11-24T03:26:06;100447.75;;;7.17;93.52
17785;BME280;9016;53.582;10.062;2022-11-24T03:28:34;100457.16;;;7.22;94.23
17785;BME280;9016;53.582;10.062;2022-11-24T03:31:03;100458.88;;;7.23;93.71
17785;BME280;9016;53.582;10.062;2022-11-24T03:33:31;100462.78;;;7.16;93.60
17785;BME280;9016;53.582;10.062;2022-11-24T03:36:00;100471.41;;;7.20;93.90
17785;BME280;9016;53.582;10.062;2022-11-24T03:38:28;100468.00;;;7.18;94.03
17785;BME280;9016;53.582;10.062;2022-11-24T03:40:56;100476.34;;;7.27;94.46
17785;BME280;9016;53.582;10.062;2022-11-24T03:43:24;100472.50;;;7.33;94.02
17785;BME280;9016;53.582;10.062;2022-11-24T03:45:52;100481.09;;;7.38;94.31
17785;BME280;9016;53.582;10.062;2022-11-24T03:48:21;100488.03;;;7.40;93.09
17785;BME280;9016;53.582;10.062;2022-11-24T03:50:52;100481.41;;;7.49;93.37
17785;BME280;9016;53.582;10.062;2022-11-24T03:53:24;100484.69;;;7.54;93.46
17785;BME280;9016;53.582;10.062;2022-11-24T03:55:53;100488.19;;;7.54;92.56
17785;BME280;9016;53.582;10.062;2022-11-24T03:58:22;100488.63;;;7.62;92.81
17785;BME280;9016;53.582;10.062;2022-11-24T04:00:51;100481.53;;;7.63;92.99
17785;BME280;9016;53.582;10.062;2022-11-24T04:03:19;100489.31;;;7.66;91.88
17785;BME280;9016;53.582;10.062;2022-11-24T04:05:48;100489.66;;;7.60;92.56
17785;BME280;9016;53.582;10.062;2022-11-24T04:08:16;100494.50;;;7.69;92.28
17785;BME280;9016;53.582;10.062;2022-11-24T04:10:48;100500.56;;;7.71;92.46
17785;BME280;9016;53.582;10.062;2022-11-24T04:13:18;100501.31;;;7.73;91.96
17785;BME280;9016;53.582;10.062;2022-11-24T04:15:45;100510.06;;;7.75;92.13
17785;BME280;9016;53.582;10.062;2022-11-24T04:18:14;100504.69;;;7.76;91.89
17785;BME280;9016;53.582;10.062;2022-11-24T04:20:42;100515.06;;;7.81;91.67
17785;BME280;9016;53.582;10.062;2022-11-24T04:23:10;100522.84;;;7.84;91.30
17785;BME280;9016;53.582;10.062;2022-11-24T04:25:38;100522.91;;;7.82;91.18
17785;BME280;9016;53.582;10.062;2022-11-24T04:28:10;100529.97;;;7.83;91.36
17785;BME280;9016;53.582;10.062;2022-11-24T04:30:38;100531.56;;;7.86;91.18
17785;BME280;9016;53.582;10.062;2022-11-24T04:33:10;100529.69;;;7.88;91.16
17785;BME280;9016;53.582;10.062;2022-11-24T04:35:39;100525.47;;;7.84;90.34
17785;BME280;9016;53.582;10.062;2022-11-24T04:38:08;100526.63;;;7.80;91.53
17785;BME280;9016;53.582;10.062;2022-11-24T04:40:36;100526.53;;;7.81;90.92
17785;BME280;9016;53.582;10.062;2022-11-24T04:43:07;100527.44;;;7.80;90.79
17785;BME280;9016;53.582;10.062;2022-11-24T04:45:37;100539.22;;;7.92;90.84
17785;BME280;9016;53.582;10.062;2022-11-24T04:48:05;100540.94;;;7.93;90.18
17785;BME280;9016;53.582;10.062;2022-11-24T04:50:33;100536.34;;;7.96;90.73
17785;BME280;9016;53.582;10.062;2022-11-24T04:53:02;100539.81;;;7.97;90.26
17785;BME280;9016;53.582;10.062;2022-11-24T04:55:30;100547.63;;;8.00;90.50
17785;BME280;9016;53.582;10.062;2022-11-24T04:57:58;100552.00;;;8.01;89.99
17785;BME280;9016;53.582;10.062;2022-11-24T05:00:26;100546.09;;;7.96;90.32
17785;BME280;9016;53.582;10.062;2022-11-24T05:02:56;100546.88;;;7.98;90.45
17785;BME280;9016;53.582;10.062;2022-11-24T05:05:23;100551.22;;;7.99;90.32
17785;BME280;9016;53.582;10.062;2022-11-24T05:07:51;100558.25;;;8.00;90.81
17785;BME280;9016;53.582;10.062;2022-11-24T05:10:20;100557.22;;;8.02;90.58
17785;BME280;9016;53.582;10.062;2022-11-24T05:13:05;100555.03;;;8.11;89.94
17785;BME280;9016;53.582;10.062;2022-11-24T05:15:35;100562.03;;;8.12;90.71
17785;BME280;9016;53.582;10.062;2022-11-24T05:18:06;100559.56;;;8.09;90.38
17785;BME280;9016;53.582;10.062;2022-11-24T05:20:34;100569.94;;;8.13;90.19
17785;BME280;9016;53.582;10.062;2022-11-24T05:23:03;100567.19;;;8.15;90.41
17785;BME280;9016;53.582;10.062;2022-11-24T05:25:31;100566.25;;;8.16;89.66
17785;BME280;9016;53.582;10.062;2022-11-24T05:28:00;100569.00;;;8.14;89.87
17785;BME280;9016;53.582;10.062;2022-11-24T05:30:29;100569.16;;;8.11;89.57
17785;BME280;9016;53.582;10.062;2022-11-24T05:32:57;100576.84;;;8.16;90.10
17785;BME280;9016;53.582;10.062;2022-11-24T05:35:27;100572.41;;;8.16;89.85
17785;BME280;9016;53.582;10.062;2022-11-24T05:37:57;100579.50;;;8.16;89.59
17785;BME280;9016;53.582;10.062;2022-11-24T05:40:25;100578.69;;;8.15;89.76
17785;BME280;9016;53.582;10.062;2022-11-24T05:42:53;100581.56;;;8.11;89.92
17785;BME280;9016;53.582;10.062;2022-11-24T05:45:21;100585.09;;;8.11;90.51
17785;BME280;9016;53.582;10.062;2022-11-24T05:47:49;100582.44;;;8.11;90.55
17785;BME280;9016;53.582;10.062;2022-11-24T05:50:20;100588.16;;;8.19;91.10
17785;BME280;9016;53.582;10.062;2022-11-24T05:52:50;100587.94;;;8.24;90.21
17785;BME280;9016;53.582;10.062;2022-11-24T05:55:19;100593.47;;;8.19;89.96
17785;BME280;9016;53.582;10.062;2022-11-24T05:57:47;100598.78;;;8.19;90.23
17785;BME280;9016;53.582;10.062;2022-11-24T06:00:15;100605.75;;;8.22;90.62
17785;BME280;9016;53.582;10.062;2022-11-24T06:02:46;100603.88;;;8.24;90.66
17785;BME280;9016;53.582;10.062;2022-11-24T06:05:14;100601.72;;;8.32;90.45
17785;BME280;9016;53.582;10.062;2022-11-24T06:07:42;100597.59;;;8.26;90.64
17785;BME280;9016;53.582;10.062;2022-11-24T06:10:11;100599.88;;;8.32;91.01
17785;BME280;9016;53.582;10.062;2022-11-24T06:12:39;100599.75;;;8.35;90.22
17785;BME280;9016;53.582;10.062;2022-11-24T06:15:08;100604.09;;;8.36;90.25
17785;BME280;9016;53.582;10.062;2022-11-24T06:17:37;100598.19;;;8.31;90.30
17785;BME280;9016;53.582;10.062;2022-11-24T06:20:06;100594.66;;;8.31;90.79
17785;BME280;9016;53.582;10.062;2022-11-24T06:22:35;100607.16;;;8.29;90.63
17785;BME280;9016;53.582;10.062;2022-11-24T06:25:03;100615.03;;;8.30;90.68
17785;BME280;9016;53.582;10.062;2022-11-24T06:27:33;100620.72;;;8.40;90.53
17785;BME280;9016;53.582;10.062;2022-11-24T06:30:01;100624.47;;;8.36;90.25
17785;BME280;9016;53.582;10.062;2022-11-24T06:32:29;100626.03;;;8.40;90.16
17785;BME280;9016;53.582;10.062;2022-11-24T06:34:57;100622.59;;;8.38;90.40
17785;BME280;9016;53.582;10.062;2022-11-24T06:37:25;100634.16;;;8.37;90.87
17785;BME280;9016;53.582;10.062;2022-11-24T06:39:53;100625.66;;;8.30;90.83
17785;BME280;9016;53.582;10.062;2022-11-24T06:42:21;100633.97;;;8.24;90.96
17785;BME280;9016;53.582;10.062;2022-11-24T06:44:50;100633.97;;;8.24;91.83
17785;BME280;9016;53.582;10.062;2022-11-24T06:47:18;100639.38;;;8.21;90.71
17785;BME280;9016;53.582;10.062;2022-11-24T06:49:46;100640.88;;;8.27;91.88
17785;BME280;9016;53.582;10.062;2022-11-24T06:52:14;100643.31;;;8.31;91.79
17785;BME280;9016;53.582;10.062;2022-11-24T06:54:42;100642.75;;;8.25;91.16
17785;BME280;9016;53.582;10.062;2022-11-24T06:57:10;100647.13;;;8.09;91.48
17785;BME280;9016;53.582;10.062;2022-11-24T06:59:38;100657.22;;;8.02;92.08
17785;BME280;9016;53.582;10.062;2022-11-24T07:02:08;100654.59;;;8.00;92.65
17785;BME280;9016;53.582;10.062;2022-11-24T07:04:36;100664.22;;;8.03;93.02
17785;BME280;9016;53.582;10.062;2022-11-24T07:07:04;100667.03;;;8.00;93.32
17785;BME280;9016;53.582;10.062;2022-11-24T07:09:32;100662.81;;;7.96;92.87
17785;BME280;9016;53.582;10.062;2022-11-24T07:12:00;100669.78;;;7.98;93.25
17785;BME280;9016;53.582;10.062;2022-11-24T07:14:29;100673.34;;;7.97;93.88
17785;BME280;9016;53.582;10.062;2022-11-24T07:16:57;100680.31;;;8.00;93.82
17785;BME280;9016;53.582;10.062;2022-11-24T07:19:27;100681.38;;;7.96;93.56
17785;BME280;9016;53.582;10.062;2022-11-24T07:21:56;100677.88;;;7.95;94.03
17785;BME280;9016;53.582;10.062;2022-11-24T07:24:24;100681.38;;;7.96;94.14
17785;BME280;9016;53.582;10.062;2022-11-24T07:26:55;100677.78;;;7.97;94.17
17785;BME280;9016;53.582;10.062;2022-11-24T07:29:23;100684.91;;;7.96;94.54
17785;BME280;9016;53.582;10.062;2022-11-24T07:31:51;100681.47;;;7.94;94.50
17785;BME280;9016;53.582;10.062;2022-11-24T07:34:19;100698.09;;;7.98;94.76
17785;BME280;9016;53.582;10.062;2022-11-24T07:36:49;100697.31;;;7.96;94.34
17785;BME280;9016;53.582;10.062;2022-11-24T07:39:17;100700.97;;;7.93;94.30
17785;BME280;9016;53.582;10.062;2022-11-24T07:41:45;100695.56;;;7.95;94.58
17785;BME280;9016;53.582;10.062;2022-11-24T07:44:13;100707.28;;;7.91;95.11
17785;BME280;9016;53.582;10.062;2022-11-24T07:46:41;100704.41;;;7.95;95.34
17785;BME280;9016;53.582;10.062;2022-11-24T07:49:09;100711.34;;;7.98;95.01
17785;BME280;9016;53.582;10.062;2022-11-24T07:51:37;100720.19;;;7.98;94.30
17785;BME280;9016;53.582;10.062;2022-11-24T07:54:06;100719.78;;;8.06;94.78
17785;BME280;9016;53.582;10.062;2022-11-24T07:56:34;100727.81;;;8.04;95.30
17785;BME280;9016;53.582;10.062;2022-11-24T07:59:05;100731.50;;;8.02;95.11
17785;BME280;9016;53.582;10.062;2022-11-24T08:01:34;100724.25;;;8.06;95.83
17785;BME280;9016;53.582;10.062;2022-11-24T08:04:02;100739.22;;;8.07;95.11
17785;BME280;9016;53.582;10.062;2022-11-24T08:06:31;100739.13;;;8.08;95.14
17785;BME280;9016;53.582;10.062;2022-11-24T08:09:10;100743.34;;;8.12;95.41
17785;BME280;9016;53.582;10.062;2022-11-24T08:11:38;100738.91;;;8.13;95.56
17785;BME280;9016;53.582;10.062;2022-11-24T08:14:06;100747.66;;;8.15;94.53
17785;BME280;9016;53.582;10.062;2022-11-24T08:16:34;100749.06;;;8.22;95.00
17785;BME280;9016;53.582;10.062;2022-11-24T08:19:02;100748.25;;;8.38;95.42
17785;BME280;9016;53.582;10.062;2022-11-24T08:21:30;100754.94;;;8.45;94.63
17785;BME280;9016;53.582;10.062;2022-11-24T08:23:58;100757.31;;;8.51;93.80
17785;BME280;9016;53.582;10.062;2022-11-24T08:26:28;100761.13;;;8.63;93.26
17785;BME280;9016;53.582;10.062;2022-11-24T08:28:56;100767.28;;;8.63;92.92
17785;BME280;9016;53.582;10.062;2022-11-24T08:31:26;100764.00;;;8.75;92.61
17785;BME280;9016;53.582;10.062;2022-11-24T08:34:00;100767.88;;;8.85;92.42
17785;BME280;9016;53.582;10.062;2022-11-24T08:36:28;100768.66;;;8.87;91.44
17785;BME280;9016;53.582;10.062;2022-11-24T08:38:58;100770.38;;;8.88;91.58
17785;BME280;9016;53.582;10.062;2022-11-24T08:41:28;100770.22;;;8.91;90.76
17785;BME280;9016;53.582;10.062;2022-11-24T08:43:56;100771.78;;;8.95;91.24
17785;BME280;9016;53.582;10.062;2022-11-24T08:46:24;100774.34;;;8.97;91.44
17785;BME280;9016;53.582;10.062;2022-11-24T08:48:53;100778.25;;;9.07;91.30
17785;BME280;9016;53.582;10.062;2022-11-24T08:51:23;100775.22;;;9.13;89.85
17785;BME280;9016;53.582;10.062;2022-11-24T08:53:53;100776.47;;;9.23;90.66
17785;BME280;9016;53.582;10.062;2022-11-24T08:56:22;100780.78;;;9.26;90.15
17785;BME280;9016;53.582;10.062;2022-11-24T08:58:52;100791.22;;;9.29;89.61
17785;BME280;9016;53.582;10.062;2022-11-24T09:01:20;100786.38;;;9.37;89.86
17785;BME280;9016;53.582;10.062;2022-11-24T09:03:49;100795.81;;;9.42;89.20
17785;BME280;9016;53.582;10.062;2022-11-24T09:06:19;100796.31;;;9.49;89.75
17785;BME280;9016;53.582;10.062;2022-11-24T09:08:48;100792.22;;;9.59;89.03
17785;BME280;9016;53.582;10.062;2022-11-24T09:11:17;100800.03;;;9.62;88.33
17785;BME280;9016;53.582;10.062;2022-11-24T09:13:45;100803.91;;;9.72;88.10
17785;BME280;9016;53.582;10.062;2022-11-24T09:16:16;100805.88;;;9.84;87.32
17785;BME280;9016;53.582;10.062;2022-11-24T09:18:47;100792.63;;;9.98;87.65
17785;BME280;9016;53.582;10.062;2022-11-24T09:21:21;100809.56;;;9.97;86.76
17785;BME280;9016;53.582;10.062;2022-11-24T09:23:50;100812.66;;;9.89;87.83
17785;BME280;9016;53.582;10.062;2022-11-24T09:26:20;100816.78;;;9.95;87.83
17785;BME280;9016;53.582;10.062;2022-11-24T09:28:48;100807.81;;;9.96;87.07
17785;BME280;9016;53.582;10.062;2022-11-24T09:31:23;100817.13;;;10.05;87.14
17785;BME280;9016;53.582;10.062;2022-11-24T09:33:52;100815.06;;;10.10;86.59
17785;BME280;9016;53.582;10.062;2022-11-24T09:36:21;100815.94;;;10.10;86.54
17785;BME280;9016;53.582;10.062;2022-11-24T09:38:49;100814.81;;;10.14;85.98
17785;BME280;9016;53.582;10.062;2022-11-24T09:41:29;100817.41;;;10.16;86.17
17785;BME280;9016;53.582;10.062;2022-11-24T09:44:05;100820.03;;;10.31;86.50
17785;BME280;9016;53.582;10.062;2022-11-24T09:46:41;100822.25;;;10.39;84.83
17785;BME280;9016;53.582;10.062;2022-11-24T09:49:22;100819.91;;;10.48;84.71
17785;BME280;9016;53.582;10.062;2022-11-24T09:51:52;100823.91;;;10.55;84.77
17785;BME280;9016;53.582;10.062;2022-11-24T09:54:23;100818.44;;;10.58;85.09
17785;BME280;9016;53.582;10.062;2022-11-24T09:56:54;100818.53;;;10.57;84.87
17785;BME280;9016;53.582;10.062;2022-11-24T09:59:24;100817.56;;;10.58;84.98
17785;BME280;9016;53.582;10.062;2022-11-24T10:01:54;100823.75;;;10.58;84.47
17785;BME280;9016;53.582;10.062;2022-11-24T10:04:26;100821.19;;;10.57;84.51
17785;BME280;9016;53.582;10.062;2022-11-24T10:07:03;100825.00;;;10.67;84.78
17785;BME280;9016;53.582;10.062;2022-11-24T10:09:49;100820.56;;;10.81;83.74
17785;BME280;9016;53.582;10.062;2022-11-24T10:12:32;100824.56;;;10.88;83.49
17785;BME280;9016;53.582;10.062;2022-11-24T10:15:14;100828.81;;;10.63;84.11
17785;BME280;9016;53.582;10.062;2022-11-24T10:17:55;100828.31;;;10.86;84.62
17785;BME280;9016;53.582;10.062;2022-11-24T10:20:39;100829.84;;;11.04;83.82
17785;BME280;9016;53.582;10.062;2022-11-24T10:23:21;100834.63;;;11.13;83.03
17785;BME280;9016;53.582;10.062;2022-11-24T10:25:56;100842.28;;;11.19;83.36
17785;BME280;9016;53.582;10.062;2022-11-24T10:28:28;100839.13;;;11.27;82.75
17785;BME280;9016;53.582;10.062;2022-11-24T10:31:15;100842.47;;;11.30;82.08
17785;BME280;9016;53.582;10.062;2022-11-24T10:33:46;100854.06;;;11.29;82.30
17785;BME280;9016;53.582;10.062;2022-11-24T10:36:19;100852.38;;;11.28;82.71
17785;BME280;9016;53.582;10.062;2022-11-24T10:38:55;100848.56;;;11.32;82.89
17785;BME280;9016;53.582;10.062;2022-11-24T10:41:32;100845.81;;;11.34;82.21
17785;BME280;9016;53.582;10.062;2022-11-24T10:44:11;100856.94;;;11.26;82.30
17785;BME280;9016;53.582;10.062;2022-11-24T10:46:39;100850.38;;;11.32;83.04
17785;BME280;9016;53.582;10.062;2022-11-24T10:49:14;100852.84;;;11.35;82.67
17785;BME280;9016;53.582;10.062;2022-11-24T10:51:53;100848.28;;;11.37;82.74
17785;BME280;9016;53.582;10.062;2022-11-24T10:54:25;100842.94;;;11.37;81.97
17785;BME280;9016;53.582;10.062;2022-11-24T10:56:53;100843.13;;;11.34;82.40
17785;BME280;9016;53.582;10.062;2022-11-24T10:59:34;100849.81;;;11.41;82.90
17785;BME280;9016;53.582;10.062;2022-11-24T11:02:29;100853.91;;;11.46;82.63
17785;BME280;9016;53.582;10.062;2022-11-24T11:05:24;100859.63;;;11.54;81.70
17785;BME280;9016;53.582;10.062;2022-11-24T11:08:10;100859.91;;;11.50;81.95
17785;BME280;9016;53.582;10.062;2022-11-24T11:10:42;100853.31;;;11.55;82.47
17785;BME280;9016;53.582;10.062;2022-11-24T11:13:25;100852.19;;;11.59;81.92
17785;BME280;9016;53.582;10.062;2022-11-24T11:15:54;100855.63;;;11.61;82.52
17785;BME280;9016;53.582;10.062;2022-11-24T11:18:28;100861.28;;;11.71;82.38
17785;BME280;9016;53.582;10.062;2022-11-24T11:21:00;100854.75;;;11.75;81.55
17785;BME280;9016;53.582;10.062;2022-11-24T11:23:31;100861.16;;;11.72;82.13
17785;BME280;9016;53.582;10.062;2022-11-24T11:26:16;100869.63;;;11.79;81.92
17785;BME280;9016;53.582;10.062;2022-11-24T11:29:00;100872.22;;;11.80;81.57
17785;BME280;9016;53.582;10.062;2022-11-24T11:31:59;100874.59;;;11.85;81.23
17785;BME280;9016;53.582;10.062;2022-11-24T11:34:49;100875.75;;;11.95;81.95
17785;BME280;9016;53.582;10.062;2022-11-24T11:37:20;100870.47;;;11.93;81.51
17785;BME280;9016;53.582;10.062;2022-11-24T11:39:49;100876.50;;;11.83;82.20
17785;BME280;9016;53.582;10.062;2022-11-24T11:42:23;100879.47;;;11.92;81.49
17785;BME280;9016;53.582;10.062;2022-11-24T11:45:14;100885.06;;;11.88;82.13
17785;BME280;9016;53.582;10.062;2022-11-24T11:47:45;100890.03;;;11.94;81.97
17785;BME280;9016;53.582;10.062;2022-11-24T11:50:19;100892.25;;;11.87;81.84
17785;BME280;9016;53.582;10.062;2022-11-24T11:52:59;100893.47;;;11.96;81.83
17785;BME280;9016;53.582;10.062;2022-11-24T11:55:55;100902.06;;;11.87;80.80
17785;BME280;9016;53.582;10.062;2022-11-24T11:58:57;100897.84;;;11.97;82.32
17785;BME280;9016;53.582;10.062;2022-11-24T12:01:54;100895.75;;;12.02;81.82
17785;BME280;9016;53.582;10.062;2022-11-24T12:04:41;100904.72;;;12.01;81.95
17785;BME280;9016;53.582;10.062;2022-11-24T12:07:31;100908.81;;;12.07;80.77
17785;BME280;9016;53.582;10.062;2022-11-24T12:10:13;100909.56;;;12.09;81.86
17785;BME280;9016;53.582;10.062;2022-11-24T12:13:02;100906.22;;;12.19;81.55
17785;BME280;9016;53.582;10.062;2022-11-24T12:15:39;100908.81;;;12.21;81.33
17785;BME280;9016;53.582;10.062;2022-11-24T12:18:15;100913.81;;;12.25;80.49
17785;BME280;9016;53.582;10.062;2022-11-24T12:21:15;100918.69;;;12.33;80.35
17785;BME280;9016;53.582;10.062;2022-11-24T12:23:59;100920.69;;;12.29;80.94
17785;BME280;9016;53.582;10.062;2022-11-24T12:26:40;100925.75;;;12.34;80.37
17785;BME280;9016;53.582;10.062;2022-11-24T12:29:24;100933.19;;;12.43;81.06
17785;BME280;9016;53.582;10.062;2022-11-24T12:32:04;100933.88;;;12.59;80.16
17785;BME280;9016;53.582;10.062;2022-11-24T12:34:45;100923.34;;;12.70;79.89
17785;BME280;9016;53.582;10.062;2022-11-24T12:37:37;100923.50;;;12.81;78.56
17785;BME280;9016;53.582;10.062;2022-11-24T12:40:13;100928.97;;;12.92;78.50
17785;BME280;9016;53.582;10.062;2022-11-24T12:42:51;100928.59;;;12.98;76.92
17785;BME280;9016;53.582;10.062;2022-11-24T12:45:30;100932.16;;;12.84;76.74
17785;BME280;9016;53.582;10.062;2022-11-24T12:48:11;100931.41;;;12.82;77.25
17785;BME280;9016;53.582;10.062;2022-11-24T12:50:42;100938.78;;;12.79;77.63
17785;BME280;9016;53.582;10.062;2022-11-24T12:53:13;100945.94;;;12.78;77.30
17785;BME280;9016;53.582;10.062;2022-11-24T12:55:42;100943.88;;;12.69;77.32
17785;BME280;9016;53.582;10.062;2022-11-24T12:58:17;100940.25;;;12.70;77.06
17785;BME280;9016;53.582;10.062;2022-11-24T13:00:57;100951.72;;;12.58;78.13
17785;BME280;9016;53.582;10.062;2022-11-24T13:03:42;100953.16;;;12.64;78.30
17785;BME280;9016;53.582;10.062;2022-11-24T13:06:15;100951.88;;;12.69;77.15
17785;BME280;9016;53.582;10.062;2022-11-24T13:08:47;100952.66;;;12.71;77.71
17785;BME280;9016;53.582;10.062;2022-11-24T13:11:32;100961.03;;;12.79;77.25
17785;BME280;9016;53.582;10.062;2022-11-24T13:14:05;100955.28;;;12.85;76.62
17785;BME280;9016;53.582;10.062;2022-11-24T13:16:34;100968.44;;;12.88;76.27
17785;BME280;9016;53.582;10.062;2022-11-24T13:19:35;100974.56;;;12.90;75.79
17785;BME280;9016;53.582;10.062;2022-11-24T13:22:15;100971.03;;;12.90;75.40